createdAt,value
2019-01-21T00:01:16.863Z,25.25
2019-01-21T00:03:46.454Z,26.65
2019-01-21T00:06:16.295Z,27.27
2019-01-21T00:08:45.955Z,24.47
2019-01-21T00:11:15.765Z,26.12
2019-01-21T00:13:48.143Z,26.90
2019-01-21T00:16:17.994Z,27.32
2019-01-21T00:18:47.679Z,25.45
2019-01-21T00:21:17.470Z,26.70
2019-01-21T00:23:47.495Z,25.65
2019-01-21T00:26:17.232Z,26.42
2019-01-21T00:28:46.869Z,26.05
2019-01-21T00:31:16.453Z,25.02
2019-01-21T00:33:46.072Z,27.48
2019-01-21T00:36:15.656Z,27.62
2019-01-21T00:38:46.607Z,26.52
2019-01-21T00:41:16.207Z,26.97
2019-01-21T00:43:45.837Z,25.27
2019-01-21T00:46:15.684Z,25.25
2019-01-21T00:48:45.630Z,25.75
2019-01-21T00:51:22.825Z,25.45
2019-01-21T00:53:52.264Z,24.50
2019-01-21T00:56:21.851Z,23.98
2019-01-21T00:58:51.408Z,24.82
2019-01-21T01:01:21.327Z,24.18
2019-01-21T01:03:50.790Z,24.65
2019-01-21T01:06:20.370Z,26.12
2019-01-21T01:08:49.903Z,25.77
2019-01-21T01:11:19.528Z,25.20
2019-01-21T01:13:49.069Z,26.60
2019-01-21T01:16:18.771Z,23.67
2019-01-21T01:18:48.315Z,25.72
2019-01-21T01:21:18.341Z,25.40
2019-01-21T01:23:47.847Z,24.50
2019-01-21T01:26:19.188Z,24.10
2019-01-21T01:28:48.899Z,25.32
2019-01-21T01:31:18.876Z,24.00
2019-01-21T01:33:48.437Z,25.80
2019-01-21T01:36:18.673Z,25.27
2019-01-21T01:38:48.240Z,24.65
2019-01-21T01:41:18.146Z,25.05
2019-01-21T01:43:47.662Z,26.07
2019-01-21T01:46:17.369Z,24.30
2019-01-21T01:48:47.025Z,25.77
2019-01-21T01:51:17.096Z,24.80
2019-01-21T01:53:46.910Z,25.25
2019-01-21T01:56:16.462Z,24.67
2019-01-21T01:58:46.287Z,24.37
2019-01-21T02:01:15.830Z,24.92
2019-01-21T02:03:45.575Z,25.15
2019-01-21T02:06:15.100Z,23.38
2019-01-21T02:08:44.681Z,24.85
2019-01-21T02:11:14.388Z,23.47
2019-01-21T02:13:43.907Z,24.10
2019-01-21T02:16:13.579Z,25.27
2019-01-21T02:18:43.090Z,25.82
2019-01-21T02:21:12.572Z,26.93
2019-01-21T02:23:44.373Z,24.95
2019-01-21T02:26:23.232Z,25.65
2019-01-21T02:29:18.061Z,23.95
2019-01-21T02:32:37.481Z,23.98
2019-01-21T02:35:23.784Z,24.43
2019-01-21T02:38:42.951Z,22.73
2019-01-21T02:41:56.196Z,25.25
2019-01-21T02:45:06.871Z,25.50
2019-01-21T02:48:00.187Z,23.10
2019-01-21T02:51:13.788Z,24.18
2019-01-21T02:54:09.683Z,24.98
2019-01-21T02:57:03.997Z,25.17
2019-01-21T03:00:01.431Z,24.23
2019-01-21T03:02:59.929Z,26.52
2019-01-21T03:06:16.900Z,24.25
2019-01-21T03:09:10.322Z,24.80
2019-01-21T03:12:11.945Z,24.37
2019-01-21T03:15:15.061Z,25.37
2019-01-21T03:18:08.050Z,25.62
2019-01-21T03:21:14.294Z,25.52
2019-01-21T03:24:24.685Z,26.27
2019-01-21T03:27:35.333Z,25.12
2019-01-21T03:30:36.785Z,24.87
2019-01-21T03:33:29.768Z,26.65
2019-01-21T03:36:06.275Z,24.63
2019-01-21T03:39:15.587Z,25.55
2019-01-21T03:42:15.604Z,25.62
2019-01-21T03:45:32.050Z,24.47
2019-01-21T03:48:48.361Z,25.72
2019-01-21T03:51:56.480Z,26.80
2019-01-21T03:54:35.090Z,25.88
2019-01-21T03:57:44.229Z,27.52
2019-01-21T04:00:47.514Z,25.20
2019-01-21T04:03:52.307Z,25.17
2019-01-21T04:06:49.406Z,25.08
2019-01-21T04:10:14.518Z,25.68
2019-01-21T04:13:21.603Z,25.52
2019-01-21T04:16:12.643Z,25.97
2019-01-21T04:19:43.153Z,26.05
2019-01-21T04:22:43.391Z,24.87
2019-01-21T04:25:47.673Z,24.52
2019-01-21T04:28:57.126Z,29.32
2019-01-21T04:32:03.878Z,26.33
2019-01-21T04:35:04.462Z,23.62
2019-01-21T04:38:11.654Z,24.70
2019-01-21T04:40:55.988Z,26.33
2019-01-21T04:43:45.178Z,28.62
2019-01-21T04:46:36.767Z,24.70
2019-01-21T04:49:42.732Z,25.00
2019-01-21T04:52:28.423Z,24.20
2019-01-21T04:55:55.891Z,25.72
2019-01-21T04:58:55.758Z,25.75
2019-01-21T05:01:58.894Z,27.93
2019-01-21T05:05:13.642Z,23.92
2019-01-21T05:08:05.676Z,24.55
2019-01-21T05:11:14.402Z,26.25
2019-01-21T05:14:22.298Z,25.62
2019-01-21T05:17:37.703Z,26.20
2019-01-21T05:20:42.133Z,27.40
2019-01-21T05:23:55.862Z,25.62
2019-01-21T05:26:36.546Z,25.75
2019-01-21T05:29:49.761Z,27.15
2019-01-21T05:32:56.994Z,25.32
2019-01-21T05:36:03.249Z,23.30
2019-01-21T05:38:53.403Z,24.82
2019-01-21T05:42:19.017Z,22.80
2019-01-21T05:45:20.191Z,25.48
2019-01-21T05:48:37.558Z,25.60
2019-01-21T05:52:09.238Z,24.87
2019-01-21T05:55:43.834Z,25.55
2019-01-21T05:58:38.471Z,26.75
2019-01-21T06:01:41.118Z,26.97
2019-01-21T06:04:37.897Z,24.02
2019-01-21T06:07:28.752Z,25.60
2019-01-21T06:10:15.650Z,26.07
2019-01-21T06:13:09.326Z,25.97
2019-01-21T06:16:12.368Z,27.20
2019-01-21T06:19:04.858Z,26.87
2019-01-21T06:22:25.593Z,27.85
2019-01-21T06:25:26.890Z,29.90
2019-01-21T06:28:35.753Z,25.90
2019-01-21T06:31:39.271Z,27.45
2019-01-21T06:34:53.006Z,26.33
2019-01-21T06:38:02.513Z,25.32
2019-01-21T06:41:14.703Z,25.45
2019-01-21T06:44:42.949Z,26.75
2019-01-21T06:47:49.017Z,29.72
2019-01-21T06:51:08.278Z,28.87
2019-01-21T06:54:17.838Z,27.00
2019-01-21T06:57:22.093Z,27.13
2019-01-21T07:00:25.634Z,25.50
2019-01-21T07:03:22.771Z,26.82
2019-01-21T07:06:23.300Z,24.20
2019-01-21T07:09:39.561Z,23.83
2019-01-21T07:12:26.532Z,25.35
2019-01-21T07:15:31.102Z,27.87
2019-01-21T07:18:30.823Z,26.20
2019-01-21T07:21:49.663Z,24.72
2019-01-21T07:25:00.708Z,26.23
2019-01-21T07:27:51.358Z,26.40
2019-01-21T07:30:29.189Z,26.65
2019-01-21T07:33:25.668Z,25.92
2019-01-21T07:36:37.685Z,29.07
2019-01-21T07:39:43.676Z,30.75
2019-01-21T07:42:51.428Z,28.73
2019-01-21T07:45:41.554Z,28.25
2019-01-21T07:48:37.631Z,26.93
2019-01-21T07:52:03.304Z,25.00
2019-01-21T07:54:55.371Z,26.37
2019-01-21T07:58:10.319Z,26.25
2019-01-21T08:00:47.669Z,24.72
2019-01-21T08:03:40.457Z,27.20
2019-01-21T08:06:45.482Z,26.62
2019-01-21T08:09:40.035Z,24.55
2019-01-21T08:12:55.723Z,25.27
2019-01-21T08:16:24.125Z,25.68
2019-01-21T08:19:15.215Z,24.92
2019-01-21T08:22:14.028Z,27.00
2019-01-21T08:25:24.496Z,25.92
2019-01-21T08:28:25.144Z,26.23
2019-01-21T08:31:29.435Z,25.43
2019-01-21T08:34:51.602Z,24.67
2019-01-21T08:38:06.078Z,25.97
2019-01-21T08:40:59.895Z,27.20
2019-01-21T08:43:55.885Z,26.45
2019-01-21T08:47:11.332Z,25.48
2019-01-21T08:50:40.481Z,25.95
2019-01-21T08:53:43.642Z,26.50
2019-01-21T08:56:36.095Z,25.90
2019-01-21T08:59:20.919Z,25.90
2019-01-21T09:02:18.933Z,27.48
2019-01-21T09:05:35.425Z,25.43
2019-01-21T09:08:55.557Z,26.62
2019-01-21T09:12:13.585Z,25.65
2019-01-21T09:15:18.505Z,25.20
2019-01-21T09:18:34.872Z,26.60
2019-01-21T09:21:34.289Z,26.45
2019-01-21T09:24:48.237Z,26.07
2019-01-21T09:27:58.754Z,26.10
2019-01-21T09:30:59.446Z,26.05
2019-01-21T09:34:14.565Z,25.82
2019-01-21T09:37:41.309Z,26.85
2019-01-21T09:41:06.941Z,25.85
2019-01-21T09:44:10.975Z,29.32
2019-01-21T09:46:45.437Z,26.70
2019-01-21T09:49:13.467Z,26.52
2019-01-21T09:51:50.610Z,25.77
2019-01-21T09:54:21.664Z,26.00
2019-01-21T09:56:55.058Z,27.25
2019-01-21T09:59:25.751Z,28.15
2019-01-21T10:01:57.848Z,31.52
2019-01-21T10:04:35.092Z,27.10
2019-01-21T10:07:50.209Z,25.30
2019-01-21T10:10:54.978Z,26.97
2019-01-21T10:14:04.660Z,27.40
2019-01-21T10:17:22.807Z,27.87
2019-01-21T10:20:21.623Z,26.33
2019-01-21T10:23:21.767Z,26.80
2019-01-21T10:26:47.046Z,27.02
2019-01-21T10:30:04.687Z,26.93
2019-01-21T10:33:10.939Z,25.92
2019-01-21T10:36:11.209Z,26.20
2019-01-21T10:39:28.255Z,26.68
2019-01-21T10:42:30.113Z,28.10
2019-01-21T10:45:31.744Z,26.95
2019-01-21T10:48:54.171Z,28.80
2019-01-21T10:51:41.505Z,28.20
2019-01-21T10:54:56.389Z,27.00
2019-01-21T10:57:56.617Z,28.60
2019-01-21T11:01:04.434Z,28.98
2019-01-21T11:04:08.473Z,26.75
2019-01-21T11:07:39.761Z,29.55
2019-01-21T11:10:23.600Z,27.93
2019-01-21T11:13:33.904Z,27.20
2019-01-21T11:16:35.791Z,27.65
2019-01-21T11:19:33.371Z,26.10
2019-01-21T11:22:15.181Z,29.37
2019-01-21T11:25:17.103Z,27.60
2019-01-21T11:28:25.273Z,27.70
2019-01-21T11:31:32.034Z,27.60
2019-01-21T11:34:42.557Z,26.82
2019-01-21T11:37:49.763Z,27.65
2019-01-21T11:40:43.827Z,27.87
2019-01-21T11:43:47.272Z,28.85
2019-01-21T11:47:14.435Z,28.70
2019-01-21T11:50:10.652Z,27.25
2019-01-21T11:52:52.795Z,28.30
2019-01-21T11:55:57.997Z,27.85
2019-01-21T11:59:01.306Z,30.70
2019-01-21T12:01:40.998Z,26.90
2019-01-21T12:04:45.146Z,28.92
2019-01-21T12:07:28.589Z,28.75
2019-01-21T12:10:26.770Z,28.25
2019-01-21T12:13:17.470Z,27.13
2019-01-21T12:16:28.507Z,28.17
2019-01-21T12:19:44.753Z,28.20
2019-01-21T12:22:51.980Z,31.15
2019-01-21T12:25:33.118Z,28.65
2019-01-21T12:28:42.240Z,28.45
2019-01-21T12:31:46.553Z,27.50
2019-01-21T12:35:04.200Z,27.67
2019-01-21T12:37:56.284Z,29.32
2019-01-21T12:41:06.418Z,26.55
2019-01-21T12:44:11.569Z,27.20
2019-01-21T12:46:52.133Z,30.02
2019-01-21T12:49:45.031Z,28.90
2019-01-21T12:52:52.714Z,28.52
2019-01-21T12:56:01.970Z,29.60
2019-01-21T12:59:02.728Z,28.73
2019-01-21T13:02:15.157Z,29.95
2019-01-21T13:05:02.454Z,29.23
2019-01-21T13:07:44.835Z,28.50
2019-01-21T13:11:00.633Z,31.57
2019-01-21T13:14:03.617Z,27.77
2019-01-21T13:16:57.831Z,28.87
2019-01-21T13:19:51.781Z,30.55
2019-01-21T13:22:51.408Z,27.52
2019-01-21T13:26:04.380Z,28.23
2019-01-21T13:29:01.653Z,27.73
2019-01-21T13:32:13.606Z,29.35
2019-01-21T13:35:18.286Z,32.17
2019-01-21T13:38:28.664Z,31.35
2019-01-21T13:41:46.541Z,27.85
2019-01-21T13:44:37.039Z,32.03
2019-01-21T13:47:29.873Z,29.80
2019-01-21T13:50:07.594Z,29.87
2019-01-21T13:53:14.005Z,31.73
2019-01-21T13:56:16.196Z,30.25
2019-01-21T13:59:22.534Z,28.38
2019-01-21T14:02:01.638Z,28.67
2019-01-21T14:05:33.106Z,28.95
2019-01-21T14:08:07.419Z,30.57
2019-01-21T14:11:38.945Z,30.62
2019-01-21T14:14:48.016Z,29.95
2019-01-21T14:18:31.440Z,29.27
2019-01-21T14:21:12.479Z,28.98
2019-01-21T14:24:36.592Z,28.98
2019-01-21T14:27:21.340Z,27.58
2019-01-21T14:30:32.529Z,31.15
2019-01-21T14:33:32.583Z,27.50
2019-01-21T14:36:19.105Z,28.20
2019-01-21T14:39:20.433Z,27.70
2019-01-21T14:42:23.306Z,29.02
2019-01-21T14:45:39.458Z,28.12
2019-01-21T14:48:47.058Z,28.07
2019-01-21T14:51:56.393Z,28.67
2019-01-21T14:54:58.552Z,29.00
2019-01-21T14:58:05.128Z,32.45
2019-01-21T15:00:58.623Z,32.63
2019-01-21T15:04:21.418Z,27.60
2019-01-21T15:07:34.926Z,28.80
2019-01-21T15:10:49.906Z,28.87
2019-01-21T15:13:40.712Z,29.57
2019-01-21T15:16:38.989Z,29.18
2019-01-21T15:19:34.940Z,31.82
2019-01-21T15:22:20.089Z,27.73
2019-01-21T15:25:33.670Z,30.35
2019-01-21T15:28:38.456Z,28.98
2019-01-21T15:31:30.059Z,28.05
2019-01-21T15:34:21.812Z,28.60
2019-01-21T15:37:53.132Z,30.12
2019-01-21T15:40:48.871Z,28.00
2019-01-21T15:43:42.694Z,30.55
2019-01-21T15:46:51.476Z,29.10
2019-01-21T15:49:30.813Z,28.80
2019-01-21T15:52:34.058Z,28.75
2019-01-21T15:55:35.078Z,29.20
2019-01-21T15:58:20.046Z,27.00
2019-01-21T16:01:31.369Z,27.70
2019-01-21T16:04:44.556Z,30.80
2019-01-21T16:07:58.485Z,27.02
2019-01-21T16:10:52.682Z,28.73
2019-01-21T16:14:04.154Z,29.27
2019-01-21T16:17:04.283Z,28.85
2019-01-21T16:20:01.094Z,27.87
2019-01-21T16:23:06.150Z,26.77
2019-01-21T16:25:49.104Z,25.85
2019-01-21T16:28:52.766Z,28.52
2019-01-21T16:31:52.740Z,27.10
2019-01-21T16:34:48.890Z,28.55
2019-01-21T16:37:45.201Z,28.23
2019-01-21T16:40:33.542Z,30.37
2019-01-21T16:43:03.019Z,27.90
2019-01-21T16:45:32.368Z,27.60
2019-01-21T16:48:01.883Z,26.57
2019-01-21T16:50:31.437Z,26.30
2019-01-21T16:53:00.937Z,28.57
2019-01-21T16:55:30.439Z,27.37
2019-01-21T16:58:00.156Z,26.50
2019-01-21T17:00:29.821Z,28.00
2019-01-21T17:02:59.601Z,29.00
2019-01-21T17:05:29.089Z,26.50
2019-01-21T17:07:58.569Z,29.05
2019-01-21T17:10:28.334Z,29.42
2019-01-21T17:12:57.753Z,29.18
2019-01-21T17:15:29.602Z,28.87
2019-01-21T17:17:59.035Z,28.45
2019-01-21T17:20:28.446Z,28.10
2019-01-21T17:22:57.858Z,27.60
2019-01-21T17:25:27.439Z,26.62
2019-01-21T17:27:56.839Z,29.92
2019-01-21T17:30:26.400Z,31.25
2019-01-21T17:32:56.076Z,31.33
2019-01-21T17:35:25.553Z,28.42
2019-01-21T17:37:55.025Z,30.35
2019-01-21T17:40:24.784Z,28.25
2019-01-21T17:42:54.187Z,29.25
2019-01-21T17:45:24.783Z,26.97
2019-01-21T17:47:54.301Z,26.95
2019-01-21T17:50:23.786Z,29.55
2019-01-21T17:52:53.191Z,27.60
2019-01-21T17:55:22.666Z,28.30
2019-01-21T17:57:52.192Z,27.13
2019-01-21T18:00:23.556Z,29.20
2019-01-21T18:02:53.205Z,28.15
2019-01-21T18:05:22.768Z,28.60
2019-01-21T18:07:52.276Z,28.67
2019-01-21T18:10:22.146Z,29.80
2019-01-21T18:12:51.768Z,28.73
2019-01-21T18:15:21.608Z,29.18
2019-01-21T18:17:51.284Z,27.67
2019-01-21T18:20:23.453Z,30.15
2019-01-21T18:22:53.119Z,28.62
2019-01-21T18:25:22.606Z,30.05
2019-01-21T18:27:52.213Z,27.58
2019-01-21T18:30:26.841Z,29.18
2019-01-21T18:32:56.361Z,28.12
2019-01-21T18:35:25.790Z,28.77
2019-01-21T18:37:55.524Z,29.87
2019-01-21T18:40:25.059Z,31.25
2019-01-21T18:42:54.931Z,29.23
2019-01-21T18:45:26.461Z,29.85
2019-01-21T18:47:56.111Z,28.35
2019-01-21T18:50:25.629Z,30.25
2019-01-21T18:52:55.328Z,29.95
2019-01-21T18:55:24.779Z,29.20
2019-01-21T18:57:55.966Z,30.30
2019-01-21T19:00:26.641Z,29.55
2019-01-21T19:02:56.292Z,28.52
2019-01-21T19:05:25.708Z,30.12
2019-01-21T19:07:55.289Z,29.02
2019-01-21T19:10:24.757Z,30.37
2019-01-21T19:12:54.232Z,34.18
2019-01-21T19:15:29.441Z,29.87
2019-01-21T19:18:01.401Z,31.20
2019-01-21T19:20:30.910Z,29.80
2019-01-21T19:23:00.376Z,33.15
2019-01-21T19:25:29.943Z,32.93
2019-01-21T19:27:59.353Z,31.48
2019-01-21T19:30:29.028Z,31.82
2019-01-21T19:32:58.670Z,29.48
2019-01-21T19:35:30.740Z,32.10
2019-01-21T19:38:00.224Z,31.15
2019-01-21T19:40:29.680Z,29.75
2019-01-21T19:42:59.221Z,32.75
2019-01-21T19:45:28.764Z,30.05
2019-01-21T19:47:58.354Z,30.68
2019-01-21T19:50:28.216Z,31.57
2019-01-21T19:52:57.749Z,32.17
2019-01-21T19:55:30.073Z,31.68
2019-01-21T19:57:59.655Z,30.97
2019-01-21T20:00:29.772Z,33.13
2019-01-21T20:02:59.461Z,29.70
2019-01-21T20:05:28.988Z,31.33
2019-01-21T20:08:00.627Z,32.40
2019-01-21T20:10:30.207Z,29.18
2019-01-21T20:12:59.895Z,29.42
2019-01-21T20:15:29.564Z,30.05
2019-01-21T20:17:59.295Z,29.27
2019-01-21T20:20:31.420Z,28.47
2019-01-21T20:23:00.930Z,28.07
2019-01-21T20:25:30.422Z,29.42
2019-01-21T20:28:00.166Z,28.25
2019-01-21T20:30:29.708Z,28.05
2019-01-21T20:33:02.395Z,28.52
2019-01-21T20:35:31.956Z,28.85
2019-01-21T20:38:01.648Z,29.45
2019-01-21T20:40:31.205Z,30.97
2019-01-21T20:43:01.109Z,29.98
2019-01-21T20:45:30.673Z,30.02
2019-01-21T20:48:00.223Z,29.18
2019-01-21T20:50:30.779Z,30.23
2019-01-21T20:53:00.360Z,28.02
2019-01-21T20:55:29.790Z,29.12
2019-01-21T20:57:59.248Z,28.20
2019-01-21T21:00:29.779Z,28.95
2019-01-21T21:03:03.051Z,29.92
2019-01-21T21:05:35.089Z,30.75
2019-01-21T21:08:06.633Z,31.05
2019-01-21T21:10:36.509Z,30.55
2019-01-21T21:13:05.890Z,32.93
2019-01-21T21:15:35.305Z,31.80
2019-01-21T21:18:04.895Z,30.75
2019-01-21T21:20:34.415Z,31.62
2019-01-21T21:23:06.341Z,29.48
2019-01-21T21:25:35.829Z,28.77
2019-01-21T21:28:06.538Z,28.45
2019-01-21T21:30:35.964Z,30.27
2019-01-21T21:33:05.824Z,30.70
2019-01-21T21:35:35.360Z,28.98
2019-01-21T21:38:05.022Z,28.57
2019-01-21T21:40:34.556Z,32.38
2019-01-21T21:43:04.094Z,30.82
2019-01-21T21:45:33.575Z,28.98
2019-01-21T21:48:03.277Z,27.75
2019-01-21T21:50:33.600Z,29.00
2019-01-21T21:53:03.144Z,28.32
2019-01-21T21:55:32.535Z,28.73
2019-01-21T21:58:01.896Z,28.83
2019-01-21T22:00:31.664Z,29.30
2019-01-21T22:03:01.144Z,28.20
2019-01-21T22:05:30.874Z,29.25
2019-01-21T22:08:00.258Z,28.67
2019-01-21T22:10:30.306Z,30.10
2019-01-21T22:12:59.787Z,31.07
2019-01-21T22:15:29.652Z,29.50
2019-01-21T22:17:59.249Z,28.67
2019-01-21T22:20:28.977Z,31.70
2019-01-21T22:23:00.885Z,29.27
2019-01-21T22:25:30.622Z,30.23
2019-01-21T22:28:00.236Z,30.57
2019-01-21T22:30:35.998Z,33.18
2019-01-21T22:33:21.002Z,31.57
2019-01-21T22:35:50.860Z,30.97
2019-01-21T22:38:20.576Z,31.25
2019-01-21T22:40:52.386Z,29.82
2019-01-21T22:43:21.675Z,30.97
2019-01-21T22:45:53.976Z,30.30
2019-01-21T22:48:23.668Z,32.95
2019-01-21T22:50:53.249Z,29.65
2019-01-21T22:53:23.623Z,30.45
2019-01-21T22:55:56.360Z,30.77
2019-01-21T22:58:25.889Z,29.25
2019-01-21T23:01:00.594Z,30.52
2019-01-21T23:03:31.348Z,30.25
2019-01-21T23:06:00.934Z,32.98
2019-01-21T23:08:30.578Z,30.40
2019-01-21T23:11:02.882Z,29.37
2019-01-21T23:13:32.585Z,31.20
2019-01-21T23:16:03.846Z,30.05
2019-01-21T23:18:33.949Z,30.45
2019-01-21T23:21:03.446Z,28.92
2019-01-21T23:23:33.101Z,29.32
2019-01-21T23:26:02.648Z,28.95
2019-01-21T23:28:32.262Z,29.35
2019-01-21T23:31:01.895Z,29.25
2019-01-21T23:33:31.440Z,30.43
2019-01-21T23:36:01.284Z,30.05
2019-01-21T23:38:30.883Z,28.83
2019-01-21T23:41:00.391Z,28.90
2019-01-21T23:43:30.020Z,29.95
2019-01-21T23:46:00.795Z,30.43
2019-01-21T23:48:30.569Z,29.63
2019-01-21T23:51:00.107Z,30.92
2019-01-21T23:53:29.686Z,30.82
2019-01-21T23:55:59.239Z,29.67
2019-01-21T23:58:28.826Z,29.40
